KJER

Jerome County Airport

Jerome, Idaho, USA
METAR KJER 221453Z AUTO 11008KT 10SM CLR 14/09 A2996 RMK AO2 SLP121 T01440094 51010
Observed Flight Rules
May-22 @ 14:53 UTC (60 minutes ago) Visual Flight Rules
Wind Visibility Clouds
110° at 8 knots 10 miles
  • Clear skies
Temperatures Readings
Current 14°C / 57°F
Dewpoint 9°C / 48°F
Humidity 72%
Altimeter 29.96" Hg
Pressure 1012.1 hPa
Elevation 1222
METAR KJER 221453Z AUTO 11008KT 10SM CLR 14/09 A2996 RMK AO2 SLP121 T01440094 51010
Observed Flight Rules
May-22 @ 14:53 UTC
(60 minutes ago)
VFR
Wind Visibility
110° at 8 knots 10 miles
Clouds
  • Clear skies
Temperature Dewpoint
14°C / 57°F 9°C / 48°F
Humidity Altimeter Pressure
72% 29.96" Hg 1012.1 hPa